createdAt,value
2022-10-11T00:01:04.048Z,11.47
2022-10-11T00:03:34.815Z,12.73
2022-10-11T00:06:05.744Z,10.17
2022-10-11T00:08:36.380Z,11.23
2022-10-11T00:11:07.579Z,7.20
2022-10-11T00:13:36.502Z,13.00
2022-10-11T00:16:10.115Z,9.27
2022-10-11T00:18:39.283Z,8.27
2022-10-11T00:21:10.434Z,9.13
2022-10-11T00:23:40.360Z,8.57
2022-10-11T00:26:11.519Z,5.60
2022-10-11T00:28:40.290Z,4.00
2022-10-11T00:31:10.537Z,4.13
2022-10-11T00:33:38.913Z,4.77
2022-10-11T00:36:09.265Z,3.43
2022-10-11T00:38:39.613Z,3.77
2022-10-11T00:41:08.507Z,3.50
2022-10-11T00:43:37.576Z,2.83
2022-10-11T00:46:27.039Z,3.00
2022-10-11T00:49:02.068Z,3.37
2022-10-11T00:51:40.646Z,2.97
2022-10-11T00:54:16.609Z,3.80
2022-10-11T00:56:49.137Z,2.77
2022-10-11T00:59:24.074Z,2.70
2022-10-11T01:01:52.623Z,1.90
2022-10-11T01:04:20.863Z,4.50
2022-10-11T01:06:50.219Z,3.50
2022-10-11T01:09:21.397Z,2.93
2022-10-11T01:11:51.823Z,4.40
2022-10-11T01:14:53.830Z,4.37
2022-10-11T01:17:31.435Z,3.40
2022-10-11T01:20:43.204Z,4.20
2022-10-11T01:23:58.977Z,3.33
2022-10-11T01:27:35.818Z,4.40
2022-10-11T01:30:24.477Z,3.80
2022-10-11T01:33:07.654Z,7.30
2022-10-11T01:35:43.152Z,4.03
2022-10-11T01:38:19.155Z,3.10
2022-10-11T01:40:52.495Z,6.63
2022-10-11T01:43:22.860Z,8.70
2022-10-11T01:45:54.993Z,49.20
2022-10-11T01:48:23.436Z,3.80
2022-10-11T01:50:54.526Z,3.37
2022-10-11T01:53:43.796Z,4.13
2022-10-11T01:56:27.419Z,3.50
2022-10-11T01:59:14.606Z,15.07
2022-10-11T02:01:56.283Z,15.23
2022-10-11T02:04:33.410Z,6.50
2022-10-11T02:07:09.687Z,7.37
2022-10-11T02:09:44.147Z,6.20
2022-10-11T02:12:17.575Z,8.97
2022-10-11T02:14:50.219Z,13.50
2022-10-11T02:17:23.047Z,7.50
2022-10-11T02:19:56.107Z,10.80
2022-10-11T02:22:30.137Z,6.80
2022-10-11T02:25:03.094Z,21.30
2022-10-11T02:27:35.494Z,23.73
2022-10-11T02:30:08.372Z,15.07
2022-10-11T02:32:42.109Z,36.73
2022-10-11T02:35:12.814Z,18.80
2022-10-11T02:37:47.744Z,20.27
2022-10-11T02:40:22.705Z,6.23
2022-10-11T02:42:58.631Z,20.23
2022-10-11T02:45:32.917Z,19.63
2022-10-11T02:48:02.851Z,28.73
2022-10-11T02:50:31.550Z,23.90
2022-10-11T02:53:00.206Z,18.57
2022-10-11T02:55:28.403Z,7.13
2022-10-11T02:57:56.583Z,25.00
2022-10-11T03:00:24.873Z,21.73
2022-10-11T03:11:36.296Z,10.17
2022-10-11T03:14:04.626Z,6.97
2022-10-11T03:16:32.882Z,20.67
2022-10-11T03:19:01.125Z,30.83
2022-10-11T03:21:29.340Z,25.67
2022-10-11T03:23:59.027Z,24.00
2022-10-11T03:26:31.105Z,22.40
2022-10-11T03:28:59.654Z,7.53
2022-10-11T03:31:28.203Z,18.77
2022-10-11T03:33:57.262Z,13.73
2022-10-11T03:36:29.988Z,34.93
2022-10-11T03:39:03.036Z,27.13
2022-10-11T03:41:31.707Z,19.93
2022-10-11T03:44:00.289Z,14.10
2022-10-11T03:46:28.537Z,16.93
2022-10-11T03:48:56.871Z,14.13
2022-10-11T03:51:25.097Z,10.70
2022-10-11T03:53:53.324Z,9.60
2022-10-11T03:56:23.261Z,8.60
2022-10-11T03:58:51.510Z,8.03
2022-10-11T04:01:20.088Z,10.47
2022-10-11T04:03:58.669Z,11.47
2022-10-11T04:06:27.300Z,9.07
2022-10-11T04:08:55.515Z,9.20
2022-10-11T04:11:25.103Z,10.23
2022-10-11T04:13:53.318Z,11.57
2022-10-11T04:16:46.618Z,8.10
2022-10-11T04:19:15.343Z,9.73
2022-10-11T04:21:43.618Z,9.73
2022-10-11T04:24:13.310Z,11.43
2022-10-11T04:26:42.871Z,9.67
2022-10-11T04:29:11.971Z,10.27
2022-10-11T04:31:40.307Z,9.90
2022-10-11T04:34:08.978Z,9.97
2022-10-11T04:36:38.978Z,10.77
2022-10-11T04:39:07.422Z,15.67
2022-10-11T04:41:36.244Z,11.50
2022-10-11T04:44:06.237Z,9.03
2022-10-11T04:46:34.464Z,17.70
2022-10-11T04:49:02.616Z,12.00
2022-10-11T04:51:30.908Z,12.70
2022-10-11T04:53:59.099Z,9.73
2022-10-11T04:56:27.481Z,9.80
2022-10-11T04:58:55.807Z,12.03
2022-10-11T05:01:25.528Z,11.37
2022-10-11T05:03:53.750Z,13.70
2022-10-11T05:07:12.207Z,14.17
2022-10-11T05:09:41.874Z,14.20
2022-10-11T05:12:37.490Z,16.60
2022-10-11T05:15:10.684Z,16.43
2022-10-11T05:18:31.604Z,18.63
2022-10-11T05:21:01.903Z,15.67
2022-10-11T05:23:56.426Z,18.10
2022-10-11T05:26:27.445Z,16.20
2022-10-11T05:28:56.363Z,16.77
2022-10-11T05:31:25.191Z,19.07
2022-10-11T05:34:19.898Z,16.23
2022-10-11T05:36:48.314Z,22.20
2022-10-11T05:39:16.543Z,27.03
2022-10-11T05:41:44.843Z,22.70
2022-10-11T05:44:13.131Z,26.80
2022-10-11T05:46:41.384Z,29.70
2022-10-11T05:49:09.604Z,28.57
2022-10-11T05:51:39.280Z,28.33
2022-10-11T05:54:09.074Z,32.00
2022-10-11T05:56:37.441Z,22.80
2022-10-11T05:59:06.259Z,26.23
2022-10-11T06:01:34.691Z,23.70
2022-10-11T06:04:06.738Z,25.43
2022-10-11T06:06:41.143Z,23.37
2022-10-11T06:09:09.348Z,27.10
2022-10-11T06:11:37.733Z,32.53
2022-10-11T06:14:05.939Z,31.40
2022-10-11T06:16:34.142Z,27.57
2022-10-11T06:19:02.453Z,27.20
2022-10-11T06:21:30.733Z,31.80
2022-10-11T06:24:01.839Z,30.17
2022-10-11T06:26:30.968Z,41.93
2022-10-11T06:28:59.514Z,33.83
2022-10-11T06:31:27.776Z,40.43
2022-10-11T06:33:55.996Z,29.83
2022-10-11T06:36:24.665Z,37.33
2022-10-11T06:38:53.600Z,33.40
2022-10-11T06:41:26.927Z,32.10
2022-10-11T06:43:55.433Z,31.43
2022-10-11T06:46:26.980Z,33.20
2022-10-11T06:48:56.403Z,30.00
2022-10-11T06:51:25.108Z,27.33
2022-10-11T06:53:55.544Z,30.40
2022-10-11T06:56:26.846Z,27.60
2022-10-11T06:58:56.702Z,20.90
2022-10-11T07:01:25.932Z,31.37
2022-10-11T07:03:56.914Z,17.50
2022-10-11T07:06:27.872Z,22.40
2022-10-11T07:08:56.744Z,23.70
2022-10-11T07:11:28.886Z,20.27
2022-10-11T07:13:59.240Z,20.20
2022-10-11T07:16:28.579Z,21.13
2022-10-11T07:19:01.679Z,20.37
2022-10-11T07:21:32.410Z,20.43
2022-10-11T07:24:00.928Z,15.63
2022-10-11T07:26:36.776Z,17.60
2022-10-11T07:29:12.351Z,19.30
2022-10-11T07:31:43.195Z,19.97
2022-10-11T07:34:11.892Z,22.73
2022-10-11T07:36:40.375Z,21.13
2022-10-11T07:39:09.714Z,22.93
2022-10-11T07:41:44.630Z,19.47
2022-10-11T07:44:14.154Z,21.93
2022-10-11T07:46:42.399Z,21.33
2022-10-11T07:49:10.640Z,18.27
2022-10-11T07:51:38.922Z,22.40
2022-10-11T07:54:07.653Z,17.93
2022-10-11T07:56:36.317Z,21.80
2022-10-11T07:59:06.346Z,24.30
2022-10-11T08:01:34.719Z,22.47
2022-10-11T08:04:04.039Z,17.30
2022-10-11T08:06:32.995Z,18.20
2022-10-11T08:09:02.748Z,21.23
2022-10-11T08:11:33.936Z,18.10
2022-10-11T08:14:04.406Z,25.10
2022-10-11T08:16:34.038Z,23.57
2022-10-11T08:19:27.324Z,22.13
2022-10-11T08:21:55.602Z,21.37
2022-10-11T08:24:25.019Z,20.60
2022-10-11T08:26:53.668Z,19.03
2022-10-11T08:29:21.835Z,19.53
2022-10-11T08:31:51.497Z,20.17
2022-10-11T08:34:19.707Z,22.43
2022-10-11T08:36:48.561Z,23.07
2022-10-11T08:39:16.949Z,19.43
2022-10-11T08:41:49.653Z,21.60
2022-10-11T08:45:05.380Z,18.30
2022-10-11T08:47:30.462Z,20.40
2022-10-11T08:50:00.235Z,19.27
2022-10-11T08:52:32.639Z,22.23
2022-10-11T08:55:08.200Z,21.90
2022-10-11T08:57:39.603Z,17.53
2022-10-11T09:00:15.366Z,21.90
2022-10-11T09:03:08.148Z,23.23
2022-10-11T09:05:47.536Z,23.97
2022-10-11T09:08:23.213Z,23.87
2022-10-11T09:11:07.650Z,25.23
2022-10-11T09:13:56.344Z,22.23
2022-10-11T09:16:35.182Z,21.13
2022-10-11T09:19:29.340Z,20.43
2022-10-11T09:22:09.536Z,25.63
2022-10-11T09:24:54.081Z,17.50
2022-10-11T09:27:50.357Z,19.43
2022-10-11T09:30:20.191Z,22.60
2022-10-11T09:32:55.315Z,28.80
2022-10-11T09:35:24.846Z,24.93
2022-10-11T09:38:02.994Z,24.47
2022-10-11T09:40:44.768Z,22.13
2022-10-11T09:43:13.491Z,25.30
2022-10-11T09:45:49.266Z,22.87
2022-10-11T09:48:22.775Z,26.93
2022-10-11T09:50:56.097Z,27.93
2022-10-11T09:53:52.595Z,25.80
2022-10-11T09:56:21.579Z,25.40
2022-10-11T09:58:50.193Z,29.60
2022-10-11T10:01:54.549Z,27.23
2022-10-11T10:05:07.982Z,31.87
2022-10-11T10:07:41.444Z,27.03
2022-10-11T10:10:31.048Z,27.10
2022-10-11T10:13:02.982Z,24.23
2022-10-11T10:15:33.385Z,24.33
2022-10-11T10:18:02.840Z,24.00
2022-10-11T10:20:34.373Z,27.70
2022-10-11T10:23:10.558Z,33.37
2022-10-11T10:25:43.588Z,24.77
2022-10-11T10:28:24.243Z,29.07
2022-10-11T10:30:55.207Z,28.13
2022-10-11T10:33:26.518Z,26.03
2022-10-11T10:36:00.200Z,26.53
2022-10-11T10:38:34.552Z,35.63
2022-10-11T10:41:05.792Z,31.70
2022-10-11T10:43:37.114Z,28.87
2022-10-11T10:46:48.090Z,29.30
2022-10-11T10:49:52.031Z,26.67
2022-10-11T10:52:58.375Z,28.50
2022-10-11T10:55:36.342Z,26.77
2022-10-11T10:58:15.069Z,20.87
2022-10-11T11:00:50.270Z,27.05
2022-10-11T11:03:25.620Z,23.05
2022-10-11T11:06:03.211Z,16.83
2022-10-11T11:08:57.401Z,22.67
2022-10-11T11:11:47.117Z,25.98
2022-10-11T11:14:30.096Z,18.60
2022-10-11T11:17:13.951Z,17.70
2022-10-11T11:19:59.110Z,20.00
2022-10-11T11:22:39.805Z,22.05
2022-10-11T11:25:23.698Z,22.83
2022-10-11T11:28:10.692Z,18.65
2022-10-11T11:30:53.646Z,21.00
2022-10-11T11:33:36.130Z,19.63
2022-10-11T11:36:12.025Z,19.65
2022-10-11T11:38:46.482Z,13.57
2022-10-11T11:41:22.415Z,25.92
2022-10-11T11:44:03.650Z,19.35
2022-10-11T11:46:38.344Z,23.08
2022-10-11T11:49:17.855Z,21.80
2022-10-11T11:51:48.626Z,15.70
2022-10-11T11:54:31.800Z,14.63
2022-10-11T11:57:05.592Z,19.98
2022-10-11T11:59:44.272Z,21.63
2022-10-11T12:02:39.877Z,20.45
2022-10-11T12:05:09.841Z,14.85
2022-10-11T12:07:55.582Z,14.85
2022-10-11T12:10:40.139Z,14.00
2022-10-11T12:13:22.553Z,15.32
2022-10-11T12:16:03.031Z,17.65
2022-10-11T12:18:32.297Z,14.40
2022-10-11T12:21:07.392Z,17.85
2022-10-11T12:23:58.926Z,15.82
2022-10-11T12:26:37.308Z,21.00
2022-10-11T12:29:48.395Z,20.50
2022-10-11T12:32:52.930Z,16.48
2022-10-11T12:36:01.463Z,20.88
2022-10-11T12:38:34.888Z,18.25
2022-10-11T12:41:37.683Z,21.85
2022-10-11T12:44:20.639Z,22.50
2022-10-11T12:47:33.044Z,18.45
2022-10-11T12:50:17.199Z,16.83
2022-10-11T12:53:01.406Z,15.43
2022-10-11T12:55:47.959Z,17.73
2022-10-11T12:58:27.867Z,16.80
2022-10-11T13:01:21.628Z,13.90
2022-10-11T13:04:05.597Z,18.80
2022-10-11T13:06:46.471Z,12.23
2022-10-11T13:09:24.347Z,14.20
2022-10-11T13:11:57.459Z,16.20
2022-10-11T13:14:28.801Z,18.08
2022-10-11T13:17:09.484Z,17.02
2022-10-11T13:22:22.937Z,16.10
2022-10-11T13:24:51.322Z,16.20
2022-10-11T13:27:23.029Z,21.70
2022-10-11T13:29:53.541Z,19.05
2022-10-11T13:32:25.588Z,21.35
2022-10-11T13:34:57.584Z,42.53
2022-10-11T13:37:29.460Z,20.33
2022-10-11T13:39:58.664Z,17.13
2022-10-11T13:42:31.960Z,15.60
2022-10-11T13:45:01.241Z,16.00
2022-10-11T13:47:32.056Z,18.40
2022-10-11T13:50:11.889Z,19.65
2022-10-11T13:52:55.464Z,15.90
2022-10-11T13:55:28.675Z,16.63
2022-10-11T13:57:59.548Z,14.65
2022-10-11T14:00:33.614Z,17.98
2022-10-11T14:03:31.989Z,16.45
2022-10-11T14:06:01.494Z,18.55
2022-10-11T14:08:37.818Z,18.33
2022-10-11T14:11:07.715Z,17.40
2022-10-11T14:13:39.642Z,17.88
2022-10-11T14:16:11.291Z,19.48
2022-10-11T14:18:46.829Z,11.65
2022-10-11T14:21:33.293Z,11.40
2022-10-11T14:24:06.133Z,14.10
2022-10-11T14:26:37.321Z,15.23
2022-10-11T14:29:09.601Z,16.73
2022-10-11T14:31:41.979Z,15.13
2022-10-11T14:34:18.326Z,13.88
2022-10-11T14:36:46.945Z,15.23
2022-10-11T14:39:19.890Z,12.88
2022-10-11T14:41:48.406Z,13.20
2022-10-11T14:44:17.075Z,15.48
2022-10-11T14:46:46.652Z,11.88
2022-10-11T14:49:16.846Z,12.73
2022-10-11T14:51:47.452Z,14.88
2022-10-11T14:54:22.211Z,13.07
2022-10-11T14:56:50.791Z,9.85
2022-10-11T14:59:22.877Z,16.00
2022-10-11T15:01:53.540Z,13.50
2022-10-11T15:04:22.965Z,12.25
2022-10-11T15:06:52.400Z,12.43
2022-10-11T15:09:22.310Z,10.90
2022-10-11T15:11:52.637Z,15.80
2022-10-11T15:14:20.867Z,11.82
2022-10-11T15:16:49.435Z,11.68
2022-10-11T15:19:19.720Z,14.48
2022-10-11T15:21:49.399Z,13.70
2022-10-11T15:24:19.867Z,9.13
2022-10-11T15:26:50.452Z,15.25
2022-10-11T15:29:21.766Z,13.43
2022-10-11T15:31:50.286Z,16.42
2022-10-11T15:34:18.760Z,18.70
2022-10-11T15:36:47.406Z,12.60
2022-10-11T15:39:27.539Z,13.32
2022-10-11T15:41:58.375Z,13.30
2022-10-11T15:44:26.836Z,17.40
2022-10-11T15:46:55.132Z,12.32
2022-10-11T15:49:23.364Z,9.43
2022-10-11T15:51:51.691Z,17.92
2022-10-11T15:54:19.875Z,14.95
2022-10-11T15:56:48.215Z,14.70
2022-10-11T15:59:18.166Z,13.52
2022-10-11T16:01:46.971Z,11.38
2022-10-11T16:04:41.319Z,13.90
2022-10-11T16:07:09.513Z,11.52
2022-10-11T16:09:37.748Z,11.60
2022-10-11T16:12:06.487Z,19.92
2022-10-11T16:14:36.258Z,17.30
2022-10-11T16:17:05.595Z,14.55
2022-10-11T16:19:33.804Z,20.67
2022-10-11T16:22:02.048Z,18.95
2022-10-11T16:24:30.312Z,12.38
2022-10-11T16:26:58.516Z,16.70
2022-10-11T16:29:26.786Z,18.75
2022-10-11T16:31:56.366Z,26.65
2022-10-11T16:34:24.843Z,34.30
2022-10-11T16:36:53.091Z,21.38
2022-10-11T16:39:21.390Z,19.25
2022-10-11T16:41:49.621Z,13.85
2022-10-11T16:44:20.461Z,13.67
2022-10-11T16:46:49.958Z,14.43
2022-10-11T16:49:22.968Z,14.90
2022-10-11T16:51:52.172Z,15.70
2022-10-11T16:54:21.792Z,17.80
2022-10-11T16:56:51.121Z,15.90
2022-10-11T16:59:19.429Z,14.67
2022-10-11T17:01:47.880Z,18.13
2022-10-11T17:04:16.317Z,14.17
2022-10-11T17:06:46.067Z,15.57
2022-10-11T17:09:15.887Z,18.37
2022-10-11T17:11:44.315Z,14.30
2022-10-11T17:14:13.930Z,13.40
2022-10-11T17:16:42.464Z,14.00
2022-10-11T17:19:13.069Z,18.20
2022-10-11T17:21:41.745Z,15.33
2022-10-11T17:24:11.364Z,12.57
2022-10-11T17:26:39.634Z,13.80
2022-10-11T17:29:07.878Z,14.37
2022-10-11T17:31:38.384Z,15.40
2022-10-11T17:34:06.835Z,17.13
2022-10-11T17:36:35.531Z,17.97
2022-10-11T17:39:07.532Z,15.07
2022-10-11T17:41:37.175Z,14.87
2022-10-11T17:44:06.294Z,17.33
2022-10-11T17:46:34.674Z,16.57
2022-10-11T17:49:05.278Z,14.97
2022-10-11T17:51:33.817Z,14.20
2022-10-11T17:54:02.195Z,17.43
2022-10-11T17:56:36.577Z,15.03
2022-10-11T17:59:08.760Z,16.30
2022-10-11T18:01:40.072Z,13.40
2022-10-11T18:04:16.225Z,15.90
2022-10-11T18:06:46.620Z,14.10
2022-10-11T18:09:17.130Z,14.03
2022-10-11T18:11:45.925Z,15.07
2022-10-11T18:14:15.621Z,16.03
2022-10-11T18:16:43.871Z,10.97
2022-10-11T18:19:14.174Z,13.97
2022-10-11T18:21:43.070Z,17.17
2022-10-11T18:24:16.005Z,17.17
2022-10-11T18:26:44.461Z,17.30
2022-10-11T18:29:13.468Z,17.57
2022-10-11T18:31:43.337Z,20.03
2022-10-11T18:34:14.748Z,17.00
2022-10-11T18:36:43.393Z,19.23
2022-10-11T18:39:15.642Z,19.73
2022-10-11T18:41:44.948Z,18.30
2022-10-11T18:44:16.324Z,19.53
2022-10-11T18:46:46.599Z,17.77
2022-10-11T18:49:15.139Z,13.27
2022-10-11T18:51:44.018Z,25.13
2022-10-11T18:54:16.725Z,18.00
2022-10-11T18:56:48.493Z,14.80
2022-10-11T18:59:17.063Z,9.57
2022-10-11T19:01:47.952Z,13.47
2022-10-11T19:04:17.115Z,22.13
2022-10-11T19:06:48.404Z,14.53
2022-10-11T19:09:21.680Z,19.63
2022-10-11T19:11:51.146Z,20.43
2022-10-11T19:14:22.515Z,19.33
2022-10-11T19:16:55.051Z,21.63
2022-10-11T19:19:25.844Z,14.27
2022-10-11T19:21:54.396Z,19.23
2022-10-11T19:24:25.836Z,13.47
2022-10-11T19:26:58.419Z,19.03
2022-10-11T19:29:30.490Z,23.17
2022-10-11T19:32:02.915Z,19.03
2022-10-11T19:34:32.687Z,20.13
2022-10-11T19:37:03.236Z,15.47
2022-10-11T19:39:31.977Z,17.33
2022-10-11T19:42:01.266Z,16.87
2022-10-11T19:44:29.552Z,17.87
2022-10-11T19:47:04.196Z,18.50
2022-10-11T19:49:33.309Z,15.20
2022-10-11T19:52:02.071Z,14.77
2022-10-11T19:54:30.624Z,14.40
2022-10-11T19:56:58.815Z,18.50
2022-10-11T19:59:28.092Z,20.07
2022-10-11T20:01:56.372Z,16.30
2022-10-11T20:04:50.994Z,18.80
2022-10-11T20:07:17.550Z,19.63
2022-10-11T20:09:46.153Z,20.97
2022-10-11T20:12:14.392Z,16.27
2022-10-11T20:14:42.720Z,15.83
2022-10-11T20:17:11.306Z,16.50
2022-10-11T20:19:41.347Z,13.93
2022-10-11T20:22:09.601Z,16.83
2022-10-11T20:24:37.827Z,22.23
2022-10-11T20:27:07.346Z,12.50
2022-10-11T20:29:35.554Z,15.17
2022-10-11T20:32:03.795Z,15.00
2022-10-11T20:34:32.403Z,16.90
2022-10-11T20:37:01.950Z,17.67
2022-10-11T20:39:30.479Z,18.67
2022-10-11T20:41:58.736Z,18.87
2022-10-11T20:44:27.100Z,17.93
2022-10-11T20:46:55.282Z,17.10
2022-10-11T20:49:23.494Z,16.70
2022-10-11T20:51:52.162Z,16.30
2022-10-11T20:54:21.787Z,18.60
2022-10-11T20:56:50.001Z,15.77
2022-10-11T20:59:18.176Z,16.77
2022-10-11T21:01:46.507Z,21.10
2022-10-11T21:04:19.960Z,15.33
2022-10-11T21:06:49.653Z,18.73
2022-10-11T21:09:19.077Z,15.53
2022-10-11T21:11:48.638Z,17.97
2022-10-11T21:14:17.247Z,13.70
2022-10-11T21:16:45.479Z,10.97
2022-10-11T21:19:16.024Z,11.17
2022-10-11T21:21:50.874Z,14.63
2022-10-11T21:24:21.423Z,13.33
2022-10-11T21:26:51.023Z,14.70
2022-10-11T21:29:19.493Z,14.97
2022-10-11T21:31:47.685Z,16.07
2022-10-11T21:34:16.147Z,12.17
2022-10-11T21:36:44.493Z,13.57
2022-10-11T21:39:12.721Z,14.93
2022-10-11T21:41:42.241Z,13.10
2022-10-11T21:44:11.937Z,11.90
2022-10-11T21:47:06.615Z,17.27
2022-10-11T21:49:28.493Z,17.33
2022-10-11T21:51:56.795Z,14.13
2022-10-11T21:54:24.988Z,11.73
2022-10-11T21:56:53.341Z,16.37
2022-10-11T21:59:22.965Z,15.70
2022-10-11T22:01:51.294Z,15.30
2022-10-11T22:04:19.659Z,12.53
2022-10-11T22:06:49.068Z,14.90
2022-10-11T22:09:17.331Z,14.47
2022-10-11T22:11:45.522Z,11.90
2022-10-11T22:14:13.754Z,12.87
2022-10-11T22:16:43.320Z,14.03
2022-10-11T22:19:11.650Z,17.43
2022-10-11T22:21:44.122Z,15.70
2022-10-11T22:24:13.379Z,15.40
2022-10-11T22:26:41.626Z,16.23
2022-10-11T22:29:09.882Z,17.90
2022-10-11T22:31:38.071Z,10.67
2022-10-11T22:34:07.657Z,13.53
2022-10-11T22:36:36.023Z,11.00
2022-10-11T22:39:07.743Z,19.73
2022-10-11T22:41:36.916Z,14.17
2022-10-11T22:44:05.881Z,16.40
2022-10-11T22:46:34.419Z,15.53
2022-10-11T22:49:02.669Z,13.30
2022-10-11T22:51:32.275Z,19.73
2022-10-11T22:54:00.470Z,16.30
2022-10-11T22:56:28.672Z,12.37
2022-10-11T22:58:57.091Z,17.30
2022-10-11T23:01:25.257Z,14.40
2022-10-11T23:03:54.026Z,12.17
2022-10-11T23:06:22.307Z,15.60
2022-10-11T23:08:51.892Z,12.80
2022-10-11T23:11:20.080Z,15.83
2022-10-11T23:13:48.328Z,9.93
2022-10-11T23:16:16.563Z,12.30
2022-10-11T23:18:45.035Z,17.43
2022-10-11T23:21:13.291Z,11.97
2022-10-11T23:23:41.511Z,12.90
2022-10-11T23:26:14.457Z,13.60
2022-10-11T23:28:43.549Z,11.63
2022-10-11T23:31:14.268Z,14.00
2022-10-11T23:33:42.584Z,15.60
2022-10-11T23:36:15.728Z,12.87
2022-10-11T23:38:44.121Z,13.27
2022-10-11T23:41:13.822Z,13.77
2022-10-11T23:43:42.042Z,14.70
2022-10-11T23:46:10.298Z,16.10
2022-10-11T23:48:38.449Z,16.77
2022-10-11T23:51:07.306Z,14.33
2022-10-11T23:53:36.203Z,17.23
2022-10-11T23:56:04.766Z,15.07
2022-10-11T23:58:34.548Z,13.00
